Data for 12/16/2006

Time Sea-Level Adjusted Pressure Absolute Pressure Temperature Relative Humidity Dew Point   
(mb) (inHg) (mb) (inHg) (C) (F) (%) (C) (F)
00:05 1008 29.77 837 24.72 -5.1 22.8 49 -14.3 6.3
00:10 1008 29.77 837 24.72 -5.1 22.8 49 -14.4 6.1
00:15 1008 29.77 837 24.72 -5.1 22.8 48 -14.5 6
00:20 1008 29.77 837 24.72 -5.1 22.8 48 -14.4 6
00:25 1008 29.77 837 24.72 -5.2 22.7 49 -14.4 6.1
00:30 1008 29.77 837 24.72 -5.2 22.6 49 -14.5 6
00:35 1008 29.77 837 24.72 -5.4 22.4 49 -14.5 5.9
00:40 1008 29.77 837 24.72 -5.4 22.4 48 -14.7 5.5
00:45 1008 29.77 837 24.72 -5.3 22.4 49 -14.5 5.9
00:50 1008 29.77 837 24.72 -5.3 22.4 48 -14.8 5.4
00:55 1008 29.77 837 24.72 -5.3 22.4 49 -14.5 6
01:00 1008 29.77 838 24.75 -5.3 22.5 49 -14.3 6.2
01:05 1008 29.77 838 24.75 -5.4 22.3 49 -14.5 6
01:10 1008 29.77 838 24.75 -5.4 22.4 49 -14.4 6.1
01:15 1008 29.77 838 24.75 -5.4 22.2 50 -14.4 6.1
01:20 1009 29.8 838 24.75 -5.4 22.2 47 -15 5
01:25 1009 29.8 838 24.75 -5.5 22.2 48 -14.8 5.3
01:30 1009 29.8 838 24.75 -5.4 22.3 47 -15 5
01:35 1009 29.8 838 24.75 -5.4 22.2 47 -15.1 4.8
01:40 1009 29.8 838 24.75 -5.4 22.2 47 -15.1 4.8
01:45 1009 29.8 838 24.75 -5.4 22.2 46 -15.3 4.5
01:50 1009 29.8 838 24.75 -5.5 22.1 46 -15.4 4.3
01:55 1009 29.8 838 24.75 -5.5 22 46 -15.4 4.3
02:00 1009 29.8 838 24.75 -5.5 22 46 -15.5 4.1
02:05 1009 29.8 838 24.75 -5.6 22 45 -15.8 3.6
02:10 1009 29.8 838 24.75 -5.6 22 45 -15.7 3.7
02:15 1009 29.8 838 24.75 -5.6 22 45 -15.7 3.7
02:20 1009 29.8 838 24.75 -5.6 22 46 -15.6 4
02:25 1009 29.8 838 24.75 -5.6 21.9 46 -15.5 4.1
02:30 1009 29.8 839 24.78 -5.6 21.9 46 -15.4 4.3
02:35 1010 29.83 839 24.78 -5.6 21.8 46 -15.6 3.9
02:40 1010 29.83 839 24.78 -5.6 22 45 -15.8 3.6
02:45 1010 29.83 839 24.78 -5.6 21.9 45 -15.7 3.8
02:50 1010 29.83 839 24.78 -5.7 21.7 46 -15.6 4
02:55 1010 29.83 839 24.78 -5.7 21.7 46 -15.5 4
03:00 1010 29.83 839 24.78 -5.7 21.7 45 -15.7 3.7
03:05 1010 29.83 839 24.78 -5.7 21.7 45 -16 3.2
03:10 1010 29.83 839 24.78 -5.7 21.7 46 -15.7 3.8
03:15 1010 29.83 839 24.78 -5.8 21.6 45 -15.8 3.5
03:20 1010 29.83 839 24.78 -5.8 21.5 46 -15.7 3.8
03:25 1010 29.83 839 24.78 -6 21.1 45 -16.1 3.1
03:30 1010 29.83 839 24.78 -6 21.2 45 -16 3.2
03:35 1010 29.83 839 24.78 -6 21.2 45 -16.1 3.1
03:40 1010 29.83 839 24.78 -6.1 21 45 -16.2 2.8
03:45 1010 29.83 839 24.78 -6.1 20.9 46 -16 3.3
03:50 1010 29.83 839 24.78 -6.1 21 45 -16.3 2.6
03:55 1010 29.83 839 24.78 -6.2 20.8 45 -16.2 2.8
04:00 1010 29.83 839 24.78 -6.3 20.7 44 -16.7 1.9
04:05 1010 29.83 839 24.78 -6.1 21.1 42 -17 1.4
04:10 1010 29.83 839 24.78 -6 21.1 43 -16.6 2.1
04:15 1010 29.83 839 24.78 -6.2 20.8 43 -16.7 1.9
04:20 1010 29.83 839 24.78 -6.1 21 44 -16.6 2.1
04:25 1010 29.83 839 24.78 -6.2 20.9 43 -16.8 1.8
04:30 1010 29.83 839 24.78 -6.2 20.9 43 -16.8 1.8
04:35 1010 29.83 839 24.78 -6.3 20.7 44 -16.6 2.1
04:40 1010 29.83 839 24.78 -6.4 20.6 45 -16.5 2.3
04:45 1010 29.83 839 24.78 -6.5 20.3 45 -16.6 2.2
04:50 1010 29.83 839 24.78 -6.6 20.2 47 -16.2 2.8
04:55 1010 29.83 839 24.78 -6.5 20.2 46 -16.5 2.4
05:00 1010 29.83 839 24.78 -6.5 20.4 46 -16.4 2.5
05:05 1010 29.83 839 24.78 -6.4 20.5 47 -16.1 3.1
05:10 1010 29.83 839 24.78 -6.5 20.3 46 -16.4 2.5
05:15 1010 29.83 840 24.81 -6.6 20.2 46 -16.3 2.6
05:20 1010 29.83 840 24.81 -6.5 20.2 46 -16.4 2.4
05:25 1010 29.83 840 24.81 -6.4 20.4 44 -16.7 2
05:30 1011 29.85 840 24.81 -6.3 20.6 46 -16.3 2.7
05:35 1011 29.85 840 24.81 -6.4 20.4 48 -15.7 3.7
05:40 1011 29.85 840 24.81 -6.5 20.2 47 -16.1 3
05:45 1011 29.85 840 24.81 -6.5 20.3 47 -16.1 3.1
05:50 1011 29.85 840 24.81 -6.4 20.5 46 -16.3 2.6
05:55 1011 29.85 840 24.81 -6.3 20.7 46 -16.1 3.1
06:00 1011 29.85 840 24.81 -6.2 20.8 47 -15.8 3.5
06:05 1011 29.85 840 24.81 -6.2 20.9 47 -15.8 3.5
06:10 1011 29.85 840 24.81 -6.1 21 46 -16 3.3
06:15 1011 29.85 840 24.81 -6 21.2 45 -16.2 2.8
06:20 1011 29.85 840 24.81 -5.9 21.4 44 -16.2 2.8
06:25 1011 29.85 840 24.81 -5.8 21.6 45 -15.9 3.5
06:30 1011 29.85 840 24.81 -5.8 21.6 44 -16.3 2.6
06:35 1011 29.85 840 24.81 -5.7 21.7 44 -16.2 2.8
06:40 1011 29.85 840 24.81 -5.7 21.7 45 -15.9 3.3
06:45 1011 29.85 840 24.81 -5.8 21.5 45 -16 3.3
06:50 1011 29.85 841 24.83 -5.8 21.6 46 -15.7 3.8
06:55 1011 29.85 841 24.83 -5.8 21.5 47 -15.5 4
07:00 1011 29.85 841 24.83 -5.8 21.5 45 -15.9 3.4
07:05 1011 29.85 841 24.83 -5.8 21.6 45 -15.8 3.5
07:10 1011 29.85 841 24.83 -5.9 21.4 45 -15.9 3.4
07:15 1012 29.88 841 24.83 -5.9 21.4 47 -15.4 4.2
07:20 1012 29.88 841 24.83 -5.9 21.3 47 -15.5 4
07:25 1012 29.88 841 24.83 -6 21.2 46 -15.7 3.7
07:30 1012 29.88 841 24.83 -6 21.3 45 -16 3.1
07:35 1012 29.88 841 24.83 -6 21.2 46 -15.9 3.5
07:40 1012 29.88 841 24.83 -6 21.2 47 -15.5 4.1
07:45 1012 29.88 841 24.83 -6.1 21.1 47 -15.6 3.9
07:50 1012 29.88 841 24.83 -6 21.3 48 -15.4 4.3
07:55 1012 29.88 841 24.83 -6.1 21.1 47 -15.7 3.8
08:00 1012 29.88 841 24.83 -6.1 21 47 -15.7 3.7
08:05 1012 29.88 841 24.83 -6.1 21 48 -15.5 4
08:10 1012 29.88 841 24.83 -6.1 21 46 -16 3.2
08:15 1012 29.88 841 24.83 -6 21.1 46 -15.9 3.4
08:20 1012 29.88 842 24.86 -6.1 21.1 45 -16 3.1
08:25 1012 29.88 842 24.86 -5.9 21.3 44 -16.2 2.8
08:30 1012 29.88 842 24.86 -6 21.2 46 -15.9 3.4
08:35 1013 29.91 842 24.86 -6 21.2 45 -16.1 3.1
08:40 1013 29.91 842 24.86 -6.1 21.1 46 -16 3.2
08:45 1013 29.91 842 24.86 -6 21.1 46 -15.8 3.6
08:50 1013 29.91 842 24.86 -6.1 21 46 -15.9 3.4
08:55 1013 29.91 842 24.86 -6.1 21.1 47 -15.7 3.7
09:00 1013 29.91 842 24.86 -6 21.2 46 -15.8 3.5
09:05 1013 29.91 842 24.86 -6 21.1 48 -15.3 4.5
09:10 1013 29.91 842 24.86 -6.1 21.1 47 -15.8 3.6
09:15 1013 29.91 842 24.86 -6 21.3 47 -15.6 3.9
09:20 1013 29.91 842 24.86 -5.9 21.4 47 -15.5 4.1
09:25 1013 29.91 842 24.86 -5.9 21.4 47 -15.4 4.2
09:30 1013 29.91 842 24.86 -5.7 21.7 46 -15.7 3.8
09:35 1013 29.91 843 24.89 -5.6 21.9 47 -15.3 4.4
09:40 1013 29.91 843 24.89 -5.5 22.1 45 -15.7 3.7
09:45 1014 29.94 843 24.89 -5.4 22.2 44 -15.8 3.6
09:50 1014 29.94 843 24.89 -5.5 22.1 43 -16.1 3
09:55 1014 29.94 843 24.89 -5.4 22.3 46 -15.4 4.3
10:00 1014 29.94 843 24.89 -5.4 22.4 42 -16.4 2.5
10:05 1014 29.94 843 24.89 -5.3 22.5 43 -16.1 2.9
10:10 1014 29.94 843 24.89 -5.1 22.8 41 -16.4 2.5
10:15 1014 29.94 843 24.89 -5.1 22.8 42 -16 3.1
10:20 1014 29.94 843 24.89 -5.1 22.8 43 -15.8 3.5
10:25 1014 29.94 843 24.89 -4.9 23.1 43 -15.6 4
10:30 1014 29.94 843 24.89 -4.7 23.6 42 -15.6 3.9
10:35 1014 29.94 843 24.89 -4.7 23.6 41 -16.2 2.9
10:40 1014 29.94 843 24.89 -4.8 23.3 39 -16.7 2
10:45 1014 29.94 844 24.92 -4.7 23.5 37 -17.5 0.5
10:50 1014 29.94 844 24.92 -4.6 23.8 39 -16.6 2
10:55 1014 29.94 844 24.92 -4.4 24 39 -16.5 2.2
11:00 1014 29.94 844 24.92 -4.5 24 40 -16 3.1
11:05 1014 29.94 844 24.92 -4.3 24.3 41 -15.7 3.8
11:10 1014 29.94 844 24.92 -4.1 24.7 38 -16.3 2.7
11:15 1015 29.97 844 24.92 -3.9 25 38 -16.4 2.5
11:20 1015 29.97 844 24.92 -3.8 25.2 36 -16.7 1.9
11:25 1014 29.94 844 24.92 -3.7 25.3 34 -17.4 0.7
11:30 1014 29.94 844 24.92 -3.6 25.4 36 -16.7 1.9
11:35 1014 29.94 844 24.92 -3.7 25.3 35 -17 1.3
11:40 1014 29.94 844 24.92 -3.9 24.9 36 -16.9 1.6
11:45 1014 29.94 844 24.92 -3.9 25 37 -16.5 2.3
11:50 1014 29.94 844 24.92 -4 24.8 35 -17.2 1
11:55 1014 29.94 844 24.92 -4 24.7 39 -16.1 3.1
12:00 1014 29.94 844 24.92 -4.1 24.6 38 -16.3 2.6
12:05 1014 29.94 844 24.92 -4.1 24.6 39 -16.2 2.9
12:10 1015 29.97 844 24.92 -4.1 24.7 39 -16.2 2.9
12:15 1014 29.94 844 24.92 -3.9 25 38 -16.1 2.9
12:20 1014 29.94 844 24.92 -3.9 24.9 39 -16 3.2
12:25 1014 29.94 844 24.92 -3.7 25.3 38 -16 3.2
12:30 1014 29.94 844 24.92 -3.5 25.7 36 -16.4 2.4
12:35 1014 29.94 844 24.92 -3.7 25.4 35 -17.1 1.2
12:40 1014 29.94 844 24.92 -3.7 25.3 37 -16.5 2.3
12:45 1014 29.94 843 24.89 -3.6 25.5 35 -17.1 1.2
12:50 1014 29.94 843 24.89 -3.4 25.8 35 -16.9 1.6
12:55 1014 29.94 843 24.89 -3.4 25.8 34 -17.2 1.1
13:00 1014 29.94 844 24.92 -3.4 25.8 35 -16.7 1.9
13:05 1014 29.94 843 24.89 -3.2 26.2 35 -16.5 2.2
13:10 1014 29.94 844 24.92 -3.2 26.2 37 -16.1 3.1
13:15 1014 29.94 844 24.92 -3.3 26 37 -15.9 3.3
13:20 1014 29.94 844 24.92 -3.4 25.8 37 -16.3 2.7
13:25 1014 29.94 844 24.92 -3.6 25.6 38 -16 3.2
13:30 1014 29.94 844 24.92 -3.6 25.5 39 -15.8 3.6
13:35 1015 29.97 844 24.92 -3.7 25.4 38 -15.9 3.3
13:40 1014 29.94 844 24.92 -3.6 25.6 37 -16.3 2.6
13:45 1014 29.94 844 24.92 -3.6 25.6 38 -16.1 3
13:50 1014 29.94 844 24.92 -3.5 25.6 36 -16.6 2.1
13:55 1015 29.97 844 24.92 -3.4 25.8 37 -16.3 2.6
14:00 1015 29.97 844 24.92 -3.3 26 35 -16.6 2.1
14:05 1015 29.97 844 24.92 -3.3 26 36 -16.3 2.6
14:10 1015 29.97 844 24.92 -3.6 25.6 36 -16.6 2
14:15 1015 29.97 844 24.92 -3.6 25.4 35 -17.1 1.3
14:20 1015 29.97 844 24.92 -3.7 25.3 36 -16.9 1.6
14:25 1015 29.97 844 24.92 -3.7 25.3 36 -16.8 1.7
14:30 1015 29.97 844 24.92 -3.8 25.2 35 -17.3 0.8
14:35 1015 29.97 844 24.92 -3.5 25.8 34 -17.2 1.1
14:40 1015 29.97 844 24.92 -3.6 25.5 35 -17.1 1.2
14:45 1015 29.97 844 24.92 -3.4 25.8 34 -17.2 1.1
14:50 1015 29.97 844 24.92 -3.2 26.3 33 -17.2 1
14:55 1015 29.97 844 24.92 -2.9 26.8 32 -17.6 0.4
15:00 1015 29.97 844 24.92 -2.8 26.9 32 -17.4 0.7
15:05 1015 29.97 844 24.92 -3.4 25.8 34 -17.1 1.1
15:10 1015 29.97 844 24.92 -3.5 25.7 34 -17.3 0.8
15:15 1015 29.97 844 24.92 -3.6 25.6 35 -17 1.4
15:20 1015 29.97 844 24.92 -3.9 25 37 -16.6 2.1
15:25 1015 29.97 844 24.92 -4.1 24.6 35 -17.4 0.7
15:30 1015 29.97 844 24.92 -3.8 25.2 35 -17.2 1.1
15:35 1015 29.97 845 24.95 -3.3 26.1 33 -17.3 0.9
15:40 1015 29.97 845 24.95 -3.2 26.3 34 -16.9 1.5
15:45 1015 29.97 845 24.95 -3 26.6 33 -17.2 1
15:50 1016 30 845 24.95 -2.8 27 32 -17.2 1.1
15:55 1016 30 845 24.95 -2.8 26.9 31 -17.6 0.4
16:00 1016 30 845 24.95 -2.8 26.9 33 -16.8 1.7
16:05 1016 30 845 24.95 -3.2 26.3 34 -17.1 1.2
16:10 1016 30 845 24.95 -3.4 25.9 33 -17.5 0.6
16:15 1016 30 845 24.95 -3.4 25.8 34 -17.3 0.9
16:20 1016 30 845 24.95 -3.5 25.8 34 -17.1 1.3
16:25 1016 30 845 24.95 -3.5 25.6 34 -17.3 0.8
16:30 1016 30 845 24.95 -3.8 25.1 35 -17.3 0.9
16:35 1016 30 845 24.95 -4.3 24.3 34 -17.9 -0.2
16:40 1016 30 845 24.95 -4.5 23.9 35 -17.7 0.2
16:45 1016 30 845 24.95 -4.7 23.6 36 -17.6 0.3
16:50 1016 30 845 24.95 -5.2 22.6 39 -17 1.4
16:55 1016 30 845 24.95 -5.9 21.4 39 -17.7 0.1
17:00 1016 30 845 24.95 -6.3 20.7 42 -17.2 1.1
17:05 1016 30 845 24.95 -6.9 19.6 43 -17.5 0.5
17:10 1016 30 845 24.95 -7.2 19.1 43 -17.8 -0.1
17:15 1016 30 846 24.98 -7 19.5 42 -18 -0.4
17:20 1016 30 846 24.98 -7.1 19.2 43 -17.7 0.1
17:25 1017 30.03 846 24.98 -7.6 18.3 44 -17.9 -0.2
17:30 1017 30.03 846 24.98 -7.6 18.3 43 -18.1 -0.5
17:35 1017 30.03 846 24.98 -7.9 17.7 44 -18.2 -0.7
17:40 1017 30.03 846 24.98 -8.3 17.1 45 -18.3 -0.9
17:45 1017 30.03 846 24.98 -8.2 17.2 43 -18.7 -1.7
17:50 1017 30.03 846 24.98 -7.7 18.1 41 -18.9 -2.1
17:55 1017 30.03 846 24.98 -7.3 18.9 39 -19 -2.3
18:00 1017 30.03 846 24.98 -7.2 19 39 -18.8 -1.9
18:05 1017 30.03 846 24.98 -7.3 18.8 39 -19.1 -2.4
18:10 1017 30.03 846 24.98 -7.3 19 39 -18.9 -2
18:15 1017 30.03 846 24.98 -7.3 18.9 38 -19.3 -2.7
18:20 1017 30.03 846 24.98 -7.3 18.8 38 -19.4 -2.8
18:25 1017 30.03 846 24.98 -7.4 18.8 38 -19.4 -3
18:30 1017 30.03 846 24.98 -7.3 18.9 38 -19.4 -2.8
18:35 1017 30.03 846 24.98 -7.3 18.8 38 -19.3 -2.7
18:40 1017 30.03 846 24.98 -7.5 18.6 40 -19 -2.1
18:45 1017 30.03 846 24.98 -8.3 17.2 43 -18.8 -1.8
18:50 1017 30.03 846 24.98 -9.4 15.2 47 -18.7 -1.7
18:55 1017 30.03 847 25.01 -9.8 14.3 49 -18.7 -1.6
19:00 1017 30.03 847 25.01 -9.7 14.6 48 -18.8 -1.8
19:05 1017 30.03 847 25.01 -9.6 14.8 48 -18.6 -1.4
19:10 1017 30.03 847 25.01 -9.3 15.2 49 -18.2 -0.8
19:15 1017 30.03 847 25.01 -9.3 15.2 48 -18.4 -1.2
19:20 1018 30.06 847 25.01 -8.9 15.9 46 -18.5 -1.4
19:25 1018 30.06 847 25.01 -8.6 16.4 43 -19.1 -2.4
19:30 1018 30.06 847 25.01 -8.2 17.2 46 -18 -0.4
19:35 1018 30.06 847 25.01 -8.6 16.4 45 -18.6 -1.5
19:40 1018 30.06 847 25.01 -8.7 16.3 42 -19.4 -2.9
19:45 1018 30.06 847 25.01 -8.6 16.5 42 -19.3 -2.7
19:50 1018 30.06 847 25.01 -8.5 16.6 45 -18.5 -1.2
19:55 1018 30.06 847 25.01 -9 15.9 47 -18.4 -1.2
20:00 1018 30.06 847 25.01 -9.2 15.5 48 -18.3 -0.9
20:05 1018 30.06 847 25.01 -9.4 15 51 -17.7 0.1
20:10 1018 30.06 847 25.01 -9.6 14.8 52 -17.7 0.2
20:15 1018 30.06 847 25.01 -9.6 14.8 51 -17.8 -0.1
20:20 1018 30.06 847 25.01 -9.8 14.4 52 -17.8 -0.1
20:25 1018 30.06 847 25.01 -9.8 14.3 52 -18 -0.4
20:30 1018 30.06 847 25.01 -9.9 14.3 52 -17.9 -0.2
20:35 1018 30.06 847 25.01 -9.8 14.4 51 -18 -0.4
20:40 1018 30.06 847 25.01 -9.5 15 51 -17.8 -0
20:45 1018 30.06 847 25.01 -9.4 15.1 50 -17.9 -0.3
20:50 1018 30.06 847 25.01 -9.5 14.9 50 -18.1 -0.5
20:55 1018 30.06 847 25.01 -9.6 14.8 54 -17.3 0.8
21:00 1018 30.06 847 25.01 -9.5 14.9 53 -17.4 0.7
21:05 1018 30.06 847 25.01 -9.3 15.3 53 -17.2 1
21:10 1018 30.06 847 25.01 -9 15.8 53 -17 1.3
21:15 1018 30.06 847 25.01 -9.1 15.6 49 -18 -0.4
21:20 1018 30.06 847 25.01 -9.4 15 48 -18.5 -1.4
21:25 1018 30.06 848 25.04 -9.2 15.5 47 -18.7 -1.6
21:30 1018 30.06 848 25.04 -9.7 14.5 49 -18.6 -1.4
21:35 1018 30.06 848 25.04 -9.9 14.1 47 -19.2 -2.5
21:40 1018 30.06 848 25.04 -10.1 13.8 53 -17.9 -0.2
21:45 1018 30.06 848 25.04 -10.9 12.5 55 -18.2 -0.7
21:50 1018 30.06 848 25.04 -10.5 13.1 55 -17.9 -0.3
21:55 1018 30.06 847 25.01 -10 14 57 -17.1 1.3
22:00 1018 30.06 848 25.04 -10 14 52 -18 -0.5
22:05 1018 30.06 848 25.04 -10.7 12.7 55 -18.1 -0.6
22:10 1018 30.06 848 25.04 -10.7 12.7 54 -18.3 -0.9
22:15 1018 30.06 847 25.01 -10.7 12.8 54 -18.2 -0.8
22:20 1018 30.06 848 25.04 -10.7 12.7 54 -18.3 -1
22:25 1018 30.06 848 25.04 -10.6 12.8 53 -18.5 -1.3
22:30 1018 30.06 848 25.04 -10.4 13.3 52 -18.4 -1.2
22:35 1018 30.06 848 25.04 -10.5 13.1 53 -18.4 -1.1
22:40 1018 30.06 848 25.04 -10.5 13 52 -18.5 -1.3
22:45 1018 30.06 848 25.04 -10.5 13.2 52 -18.6 -1.5
22:50 1018 30.06 847 25.01 -10.4 13.3 52 -18.6 -1.5
22:55 1018 30.06 847 25.01 -10.6 12.9 52 -18.6 -1.5
23:00 1018 30.06 847 25.01 -10.7 12.7 52 -18.7 -1.7
23:05 1018 30.06 847 25.01 -10.7 12.7 52 -18.9 -1.9
23:10 1018 30.06 847 25.01 -10.6 12.9 51 -18.8 -1.9
23:15 1018 30.06 847 25.01 -10.3 13.5 50 -18.9 -2.1
23:20 1018 30.06 847 25.01 -10.2 13.6 50 -18.7 -1.7
23:25 1018 30.06 847 25.01 -10.7 12.7 53 -18.5 -1.3
23:30 1018 30.06 847 25.01 -11 12.2 54 -18.7 -1.6
23:35 1018 30.06 847 25.01 -10.9 12.4 53 -18.8 -1.9
23:40 1018 30.06 847 25.01 -10.9 12.3 53 -18.7 -1.7
23:45 1018 30.06 847 25.01 -10.9 12.4 53 -18.7 -1.7
23:50 1018 30.06 847 25.01 -10.8 12.6 52 -18.8 -1.8
23:55 1018 30.06 847 25.01 -10.7 12.8 51 -18.9 -2
24:00 1018 30.06 847 25.01 -10.8 12.5 52 -18.8 -1.8